createdAt,value
2023-05-14T00:00:24.689Z,188.16
2023-05-14T00:01:24.517Z,178.99
2023-05-14T00:02:24.603Z,186.30
2023-05-14T00:03:24.702Z,190.05
2023-05-14T00:04:24.594Z,183.69
2023-05-14T00:05:24.579Z,187.96
2023-05-14T00:06:24.585Z,186.84
2023-05-14T00:07:24.594Z,183.81
2023-05-14T00:08:24.610Z,185.22
2023-05-14T00:09:24.610Z,189.64
2023-05-14T00:10:24.748Z,184.55
2023-05-14T00:11:24.630Z,188.01
2023-05-14T00:12:24.631Z,190.18
2023-05-14T00:13:24.590Z,191.49
2023-05-14T00:14:24.659Z,186.07
2023-05-14T00:15:24.659Z,184.14
2023-05-14T00:16:24.769Z,185.80
2023-05-14T00:17:24.722Z,195.51
2023-05-14T00:18:24.694Z,189.95
2023-05-14T00:19:24.686Z,185.50
2023-05-14T00:20:24.958Z,193.80
2023-05-14T00:21:24.757Z,182.91
2023-05-14T00:22:24.706Z,185.04
2023-05-14T00:23:24.709Z,187.34
2023-05-14T00:24:24.708Z,185.03
2023-05-14T00:25:24.674Z,186.69
2023-05-14T00:26:24.726Z,191.27
2023-05-14T00:27:24.737Z,191.32
2023-05-14T00:28:24.668Z,187.94
2023-05-14T00:29:24.703Z,189.95
2023-05-14T00:30:25.707Z,187.95
2023-05-14T00:31:24.783Z,190.23
2023-05-14T00:32:24.836Z,190.63
2023-05-14T00:33:24.729Z,181.62
2023-05-14T00:34:24.780Z,191.16
2023-05-14T00:35:24.781Z,186.00
2023-05-14T00:36:24.752Z,187.76
2023-05-14T00:37:24.738Z,187.30
2023-05-14T00:38:24.743Z,192.33
2023-05-14T00:39:24.889Z,185.70
2023-05-14T00:40:25.093Z,187.14
2023-05-14T00:41:24.853Z,192.10
2023-05-14T00:42:24.860Z,187.61
2023-05-14T00:43:24.842Z,191.54
2023-05-14T00:44:24.856Z,184.93
2023-05-14T00:45:24.864Z,186.60
2023-05-14T00:46:24.902Z,190.22
2023-05-14T00:47:24.923Z,187.86
2023-05-14T00:48:24.874Z,189.17
2023-05-14T00:49:24.896Z,190.55
2023-05-14T00:50:25.108Z,186.51
2023-05-14T00:51:24.911Z,188.61
2023-05-14T00:52:24.851Z,191.95
2023-05-14T00:53:24.833Z,180.36
2023-05-14T00:54:24.848Z,189.94
2023-05-14T00:55:24.926Z,190.91
2023-05-14T00:56:24.856Z,183.69
2023-05-14T00:57:24.878Z,193.29
2023-05-14T00:58:24.870Z,186.51
2023-05-14T00:59:24.956Z,187.96
2023-05-14T01:00:25.088Z,193.42
2023-05-14T01:01:24.936Z,188.38
2023-05-14T01:02:25.132Z,192.87
2023-05-14T01:03:25.029Z,199.03
2023-05-14T01:04:24.911Z,194.37
2023-05-14T01:05:24.981Z,198.20
2023-05-14T01:06:24.963Z,194.54
2023-05-14T01:07:24.953Z,187.62
2023-05-14T01:08:24.951Z,193.09
2023-05-14T01:09:24.962Z,191.46
2023-05-14T01:10:25.391Z,191.03
2023-05-14T01:11:25.038Z,189.16
2023-05-14T01:12:25.051Z,192.82
2023-05-14T01:13:25.036Z,196.13
2023-05-14T01:14:25.061Z,195.74
2023-05-14T01:15:25.071Z,191.88
2023-05-14T01:16:25.116Z,191.46
2023-05-14T01:17:25.112Z,190.89
2023-05-14T01:18:25.132Z,188.45
2023-05-14T01:19:25.081Z,188.89
2023-05-14T01:20:25.305Z,187.73
2023-05-14T01:21:25.094Z,189.04
2023-05-14T01:22:25.208Z,193.81
2023-05-14T01:23:25.380Z,191.41
2023-05-14T01:24:25.456Z,189.20
2023-05-14T01:25:25.539Z,193.30
2023-05-14T01:26:25.594Z,189.72
2023-05-14T01:27:25.569Z,194.33
2023-05-14T01:28:25.578Z,193.25
2023-05-14T01:29:25.565Z,190.90
2023-05-14T01:30:25.792Z,196.27
2023-05-14T01:31:25.706Z,188.24
2023-05-14T01:32:25.701Z,188.32
2023-05-14T01:33:25.691Z,188.20
2023-05-14T01:34:25.714Z,194.35
2023-05-14T01:35:25.720Z,194.22
2023-05-14T01:36:25.710Z,192.98
2023-05-14T01:37:25.814Z,199.08
2023-05-14T01:38:25.884Z,194.64
2023-05-14T01:39:25.906Z,187.25
2023-05-14T01:40:26.108Z,195.58
2023-05-14T01:41:25.893Z,198.02
2023-05-14T01:42:26.012Z,197.14
2023-05-14T01:43:26.128Z,194.93
2023-05-14T01:44:26.165Z,190.06
2023-05-14T01:45:26.189Z,194.02
2023-05-14T01:46:26.265Z,199.09
2023-05-14T01:47:26.221Z,196.98
2023-05-14T01:48:26.191Z,192.52
2023-05-14T01:49:26.244Z,189.20
2023-05-14T01:50:26.407Z,198.57
2023-05-14T01:51:26.332Z,190.99
2023-05-14T01:52:26.319Z,198.59
2023-05-14T01:53:26.351Z,198.03
2023-05-14T01:54:26.334Z,193.29
2023-05-14T01:55:26.336Z,196.06
2023-05-14T01:56:26.477Z,198.05
2023-05-14T01:57:26.424Z,198.09
2023-05-14T01:58:26.471Z,193.30
2023-05-14T01:59:26.473Z,194.54
2023-05-14T02:00:26.624Z,197.08
2023-05-14T02:01:26.545Z,198.63
2023-05-14T02:02:26.585Z,191.60
2023-05-14T02:03:26.597Z,191.54
2023-05-14T02:04:26.641Z,195.90
2023-05-14T02:05:26.578Z,200.89
2023-05-14T02:06:26.586Z,197.85
2023-05-14T02:07:26.593Z,187.49
2023-05-14T02:08:26.599Z,199.02
2023-05-14T02:09:26.669Z,195.93
2023-05-14T02:10:26.649Z,192.59
2023-05-14T02:11:26.668Z,200.27
2023-05-14T02:12:26.632Z,192.00
2023-05-14T02:13:26.789Z,192.27
2023-05-14T02:14:26.838Z,199.03
2023-05-14T02:15:26.993Z,198.57
2023-05-14T02:16:27.010Z,200.96
2023-05-14T02:17:27.034Z,199.48
2023-05-14T02:18:27.048Z,193.79
2023-05-14T02:19:27.018Z,194.50
2023-05-14T02:20:27.077Z,198.45
2023-05-14T02:21:27.081Z,198.12
2023-05-14T02:22:27.125Z,200.18
2023-05-14T02:23:37.771Z,195.96
2023-05-14T02:24:28.109Z,196.27
2023-05-14T02:25:27.107Z,196.69
2023-05-14T02:26:27.070Z,194.89
2023-05-14T02:27:27.075Z,197.99
2023-05-14T02:28:27.085Z,198.70
2023-05-14T02:29:27.107Z,193.55
2023-05-14T02:30:27.062Z,199.78
2023-05-14T02:31:27.067Z,197.52
2023-05-14T02:32:27.216Z,198.94
2023-05-14T02:33:27.069Z,195.70
2023-05-14T02:34:27.122Z,198.51
2023-05-14T02:35:27.027Z,195.67
2023-05-14T02:36:27.040Z,199.80
2023-05-14T02:37:27.016Z,199.71
2023-05-14T02:38:26.996Z,193.54
2023-05-14T02:39:26.994Z,198.37
2023-05-14T02:40:27.063Z,198.81
2023-05-14T02:41:26.983Z,199.40
2023-05-14T02:42:26.981Z,198.95
2023-05-14T02:43:26.954Z,194.99
2023-05-14T02:44:26.995Z,198.05
2023-05-14T02:45:26.996Z,200.59
2023-05-14T02:46:27.020Z,199.59
2023-05-14T02:47:26.965Z,199.70
2023-05-14T02:48:26.941Z,196.62
2023-05-14T02:49:26.963Z,199.16
2023-05-14T02:50:26.926Z,202.16
2023-05-14T02:51:26.946Z,199.96
2023-05-14T02:52:26.941Z,201.32
2023-05-14T02:53:26.949Z,199.99
2023-05-14T02:54:26.894Z,195.42
2023-05-14T02:55:26.914Z,201.46
2023-05-14T02:56:26.890Z,195.79
2023-05-14T02:57:26.899Z,202.13
2023-05-14T02:58:28.110Z,201.73
2023-05-14T02:59:26.882Z,201.24
2023-05-14T03:00:26.854Z,202.08
2023-05-14T03:01:26.905Z,200.47
2023-05-14T03:02:26.948Z,202.15
2023-05-14T03:03:26.862Z,200.66
2023-05-14T03:04:26.880Z,201.28
2023-05-14T03:05:26.926Z,203.31
2023-05-14T03:06:26.941Z,201.43
2023-05-14T03:07:26.939Z,200.51
2023-05-14T03:08:26.950Z,199.29
2023-05-14T03:09:26.976Z,202.20
2023-05-14T03:10:27.051Z,202.13
2023-05-14T03:11:26.963Z,198.38
2023-05-14T03:12:26.981Z,200.71
2023-05-14T03:13:26.979Z,203.57
2023-05-14T03:14:26.986Z,200.65
2023-05-14T03:15:27.001Z,200.81
2023-05-14T03:16:27.023Z,203.22
2023-05-14T03:17:27.559Z,197.90
2023-05-14T03:18:27.056Z,199.77
2023-05-14T03:19:27.038Z,203.05
2023-05-14T03:20:26.999Z,203.88
2023-05-14T03:21:27.048Z,198.01
2023-05-14T03:22:27.044Z,200.59
2023-05-14T03:23:27.091Z,201.64
2023-05-14T03:24:27.055Z,200.55
2023-05-14T03:25:27.048Z,202.76
2023-05-14T03:26:27.068Z,195.74
2023-05-14T03:27:27.089Z,201.22
2023-05-14T03:28:27.079Z,202.97
2023-05-14T03:29:27.103Z,201.36
2023-05-14T03:30:27.224Z,201.04
2023-05-14T03:31:27.252Z,202.52
2023-05-14T03:32:27.136Z,202.38
2023-05-14T03:33:27.112Z,203.19
2023-05-14T03:34:27.116Z,197.89
2023-05-14T03:35:27.149Z,205.75
2023-05-14T03:36:27.135Z,203.80
2023-05-14T03:37:27.277Z,202.44
2023-05-14T03:38:27.155Z,203.15
2023-05-14T03:39:27.159Z,203.35
2023-05-14T03:40:27.174Z,202.16
2023-05-14T03:41:27.193Z,204.84
2023-05-14T03:42:27.193Z,205.11
2023-05-14T03:43:27.192Z,203.66
2023-05-14T03:44:27.190Z,204.44
2023-05-14T03:45:27.175Z,203.54
2023-05-14T03:46:27.230Z,203.64
2023-05-14T03:47:27.302Z,201.36
2023-05-14T03:48:27.392Z,201.21
2023-05-14T03:49:27.239Z,199.31
2023-05-14T03:50:27.375Z,203.08
2023-05-14T03:51:27.276Z,205.46
2023-05-14T03:52:27.384Z,203.23
2023-05-14T03:53:27.259Z,202.74
2023-05-14T03:54:27.387Z,205.18
2023-05-14T03:55:27.272Z,206.57
2023-05-14T03:56:27.320Z,201.07
2023-05-14T03:57:27.319Z,205.20
2023-05-14T03:58:27.344Z,205.77
2023-05-14T03:59:27.328Z,204.24
2023-05-14T04:00:27.389Z,205.60
2023-05-14T04:01:27.355Z,202.32
2023-05-14T04:02:27.516Z,203.50
2023-05-14T04:03:27.488Z,201.88
2023-05-14T04:04:27.377Z,203.74
2023-05-14T04:05:27.385Z,205.21
2023-05-14T04:06:27.393Z,204.59
2023-05-14T04:07:27.388Z,204.65
2023-05-14T04:08:27.413Z,206.09
2023-05-14T04:09:27.402Z,207.07
2023-05-14T04:10:27.419Z,204.56
2023-05-14T04:11:27.438Z,206.68
2023-05-14T04:12:27.411Z,202.84
2023-05-14T04:13:27.454Z,206.04
2023-05-14T04:14:27.434Z,206.71
2023-05-14T04:15:27.434Z,205.79
2023-05-14T04:16:27.569Z,208.14
2023-05-14T04:17:27.615Z,205.87
2023-05-14T04:18:27.529Z,207.10
2023-05-14T04:19:27.496Z,206.83
2023-05-14T04:20:27.530Z,202.82
2023-05-14T04:21:27.555Z,205.38
2023-05-14T04:22:27.511Z,205.37
2023-05-14T04:23:27.531Z,208.40
2023-05-14T04:24:27.550Z,204.89
2023-05-14T04:25:27.517Z,207.01
2023-05-14T04:26:27.561Z,204.11
2023-05-14T04:27:28.015Z,207.32
2023-05-14T04:28:27.562Z,206.14
2023-05-14T04:29:27.580Z,206.51
2023-05-14T04:30:27.574Z,203.84
2023-05-14T04:31:27.581Z,204.94
2023-05-14T04:32:27.596Z,208.42
2023-05-14T04:33:27.576Z,205.17
2023-05-14T04:34:27.589Z,205.99
2023-05-14T04:35:27.617Z,204.78
2023-05-14T04:36:27.600Z,207.04
2023-05-14T04:37:27.637Z,206.38
2023-05-14T04:38:27.665Z,205.98
2023-05-14T04:39:27.680Z,206.97
2023-05-14T04:40:27.654Z,206.60
2023-05-14T04:41:27.689Z,206.28
2023-05-14T04:42:27.678Z,202.00
2023-05-14T04:43:27.652Z,204.70
2023-05-14T04:44:27.737Z,206.75
2023-05-14T04:45:27.713Z,207.85
2023-05-14T04:46:27.782Z,206.11
2023-05-14T04:47:27.777Z,205.10
2023-05-14T04:48:27.726Z,205.45
2023-05-14T04:49:27.713Z,209.35
2023-05-14T04:50:27.766Z,206.88
2023-05-14T04:51:27.746Z,207.61
2023-05-14T04:52:27.753Z,206.40
2023-05-14T04:53:27.709Z,207.82
2023-05-14T04:54:27.802Z,207.62
2023-05-14T04:55:27.769Z,207.44
2023-05-14T04:56:27.779Z,207.00
2023-05-14T04:57:27.802Z,209.43
2023-05-14T04:58:27.769Z,209.87
2023-05-14T04:59:27.784Z,208.64
2023-05-14T05:00:27.843Z,208.89
2023-05-14T05:01:27.801Z,207.70
2023-05-14T05:02:27.891Z,205.98
2023-05-14T05:03:27.893Z,209.16
2023-05-14T05:04:27.821Z,206.13
2023-05-14T05:05:27.846Z,209.59
2023-05-14T05:06:27.878Z,208.38
2023-05-14T05:07:27.894Z,208.59
2023-05-14T05:08:27.868Z,208.81
2023-05-14T05:09:27.900Z,209.21
2023-05-14T05:10:27.872Z,210.14
2023-05-14T05:11:27.928Z,209.60
2023-05-14T05:12:27.920Z,207.29
2023-05-14T05:13:27.922Z,209.26
2023-05-14T05:14:27.932Z,209.29
2023-05-14T05:15:27.959Z,212.57
2023-05-14T05:16:28.029Z,211.15
2023-05-14T05:17:27.993Z,208.10
2023-05-14T05:18:28.050Z,211.28
2023-05-14T05:19:39.663Z,207.28
2023-05-14T05:20:29.058Z,207.50
2023-05-14T05:21:27.995Z,208.28
2023-05-14T05:22:27.958Z,208.99
2023-05-14T05:23:28.007Z,208.68
2023-05-14T05:24:27.975Z,209.47
2023-05-14T05:25:27.969Z,208.78
2023-05-14T05:26:27.959Z,207.57
2023-05-14T05:27:27.954Z,209.82
2023-05-14T05:28:27.932Z,208.01
2023-05-14T05:29:27.943Z,207.73
2023-05-14T05:30:27.913Z,210.18
2023-05-14T05:31:27.980Z,208.35
2023-05-14T05:32:27.947Z,209.33
2023-05-14T05:33:27.897Z,208.78
2023-05-14T05:34:27.981Z,207.55
2023-05-14T05:35:27.912Z,210.44
2023-05-14T05:36:27.884Z,208.59
2023-05-14T05:37:27.889Z,211.41
2023-05-14T05:38:27.864Z,210.22
2023-05-14T05:39:27.901Z,208.92
2023-05-14T05:40:27.838Z,209.67
2023-05-14T05:41:27.859Z,211.04
2023-05-14T05:42:27.822Z,210.69
2023-05-14T05:43:27.820Z,210.32
2023-05-14T05:44:27.851Z,208.83
2023-05-14T05:45:27.902Z,210.09
2023-05-14T05:46:27.936Z,211.14
2023-05-14T05:47:27.900Z,210.06
2023-05-14T05:48:27.817Z,209.34
2023-05-14T05:49:27.808Z,209.25
2023-05-14T05:50:27.793Z,210.63
2023-05-14T05:51:27.786Z,208.31
2023-05-14T05:52:27.785Z,209.16
2023-05-14T05:53:27.811Z,210.83
2023-05-14T05:54:27.824Z,209.21
2023-05-14T05:55:27.805Z,211.71
2023-05-14T05:56:27.814Z,208.50
2023-05-14T05:57:27.854Z,209.04
2023-05-14T05:58:27.832Z,209.07
2023-05-14T05:59:27.836Z,209.05
2023-05-14T06:00:28.028Z,207.86
2023-05-14T06:01:27.931Z,209.55
2023-05-14T06:02:28.007Z,208.78
2023-05-14T06:03:27.915Z,207.42
2023-05-14T06:04:27.892Z,208.49
2023-05-14T06:05:27.978Z,206.79
2023-05-14T06:06:27.913Z,209.51
2023-05-14T06:07:27.912Z,209.90
2023-05-14T06:08:27.914Z,211.82
2023-05-14T06:09:27.958Z,210.38
2023-05-14T06:10:27.905Z,210.65
2023-05-14T06:11:27.944Z,208.22
2023-05-14T06:12:27.982Z,208.71
2023-05-14T06:13:27.940Z,208.92
2023-05-14T06:14:27.953Z,210.44
2023-05-14T06:15:27.976Z,209.33
2023-05-14T06:16:28.012Z,205.59
2023-05-14T06:17:28.000Z,211.82
2023-05-14T06:18:28.016Z,210.19
2023-05-14T06:19:27.992Z,207.85
2023-05-14T06:20:28.021Z,211.25
2023-05-14T06:21:28.083Z,209.12
2023-05-14T06:22:28.099Z,208.00
2023-05-14T06:23:28.062Z,209.95
2023-05-14T06:24:28.100Z,207.73
2023-05-14T06:25:28.116Z,209.02
2023-05-14T06:26:28.122Z,211.95
2023-05-14T06:27:28.130Z,211.80
2023-05-14T06:28:28.128Z,210.94
2023-05-14T06:29:28.171Z,211.73
2023-05-14T06:30:28.209Z,211.52
2023-05-14T06:31:28.200Z,210.61
2023-05-14T06:32:28.213Z,206.62
2023-05-14T06:33:28.157Z,211.98
2023-05-14T06:34:28.174Z,209.56
2023-05-14T06:35:28.229Z,211.38
2023-05-14T06:36:28.211Z,210.36
2023-05-14T06:37:28.213Z,211.62
2023-05-14T06:38:28.286Z,211.28
2023-05-14T06:39:28.271Z,210.50
2023-05-14T06:40:28.346Z,211.10
2023-05-14T06:41:28.305Z,212.93
2023-05-14T06:42:28.325Z,211.55
2023-05-14T06:43:28.343Z,209.44
2023-05-14T06:44:28.310Z,210.63
2023-05-14T06:45:28.298Z,211.29
2023-05-14T06:46:28.336Z,209.68
2023-05-14T06:47:28.369Z,209.33
2023-05-14T06:48:28.457Z,212.62
2023-05-14T06:49:28.345Z,213.55
2023-05-14T06:50:28.374Z,212.15
2023-05-14T06:51:28.393Z,210.04
2023-05-14T06:52:28.403Z,209.82
2023-05-14T06:53:28.425Z,210.80
2023-05-14T06:54:28.468Z,210.67
2023-05-14T06:55:28.477Z,211.82
2023-05-14T06:56:28.481Z,211.27
2023-05-14T06:57:28.453Z,208.89
2023-05-14T06:58:28.512Z,203.06
2023-05-14T06:59:28.538Z,205.71
2023-05-14T07:00:28.496Z,211.14
2023-05-14T07:01:28.597Z,213.69
2023-05-14T07:02:28.558Z,211.31
2023-05-14T07:03:28.560Z,210.49
2023-05-14T07:04:28.619Z,210.66
2023-05-14T07:05:28.572Z,211.30
2023-05-14T07:06:28.582Z,207.45
2023-05-14T07:07:28.561Z,206.29
2023-05-14T07:08:28.545Z,202.71
2023-05-14T07:09:28.796Z,211.02
2023-05-14T07:10:28.632Z,202.50
2023-05-14T07:11:28.636Z,210.09
2023-05-14T07:12:28.592Z,209.39
2023-05-14T07:13:28.855Z,207.52
2023-05-14T07:14:28.593Z,213.15
2023-05-14T07:15:28.660Z,209.49
2023-05-14T07:16:28.696Z,208.26
2023-05-14T07:17:28.759Z,211.78
2023-05-14T07:18:28.699Z,204.28
2023-05-14T07:19:28.709Z,206.25
2023-05-14T07:20:28.759Z,211.26
2023-05-14T07:21:28.793Z,213.23
2023-05-14T07:22:28.917Z,210.97
2023-05-14T07:23:28.911Z,211.14
2023-05-14T07:24:28.917Z,214.03
2023-05-14T07:25:28.944Z,203.12
2023-05-14T07:26:28.954Z,207.06
2023-05-14T07:27:28.892Z,209.68
2023-05-14T07:28:29.009Z,210.58
2023-05-14T07:29:29.010Z,202.00
2023-05-14T07:30:29.004Z,209.77
2023-05-14T07:31:28.973Z,204.44
2023-05-14T07:32:29.097Z,209.30
2023-05-14T07:33:28.998Z,207.28
2023-05-14T07:34:28.996Z,210.02
2023-05-14T07:35:29.015Z,205.11
2023-05-14T07:36:29.012Z,204.02
2023-05-14T07:37:29.022Z,204.83
2023-05-14T07:38:29.044Z,206.11
2023-05-14T07:39:29.184Z,208.49
2023-05-14T07:40:29.140Z,210.28
2023-05-14T07:41:29.183Z,208.68
2023-05-14T07:42:35.840Z,207.18
2023-05-14T07:43:30.245Z,207.39
2023-05-14T07:44:29.104Z,207.42
2023-05-14T07:45:29.123Z,208.08
2023-05-14T07:46:29.124Z,209.30
2023-05-14T07:47:29.220Z,213.26
2023-05-14T07:48:29.187Z,216.55
2023-05-14T07:49:29.099Z,208.65
2023-05-14T07:50:29.110Z,209.96
2023-05-14T07:51:29.158Z,210.83
2023-05-14T07:52:29.105Z,205.27
2023-05-14T07:53:29.062Z,199.92
2023-05-14T07:54:29.080Z,211.43
2023-05-14T07:55:29.139Z,204.32
2023-05-14T07:56:29.143Z,205.97
2023-05-14T07:57:29.151Z,211.46
2023-05-14T07:58:29.212Z,205.03
2023-05-14T07:59:29.264Z,214.82
2023-05-14T08:00:29.341Z,216.37
2023-05-14T08:01:29.380Z,211.47
2023-05-14T08:02:29.523Z,208.58
2023-05-14T08:03:29.652Z,208.53
2023-05-14T08:04:29.692Z,210.99
2023-05-14T08:05:29.607Z,210.95
2023-05-14T08:06:29.679Z,213.68
2023-05-14T08:07:29.788Z,211.57
2023-05-14T08:08:29.851Z,215.08
2023-05-14T08:09:29.850Z,208.78
2023-05-14T08:10:30.000Z,213.88
2023-05-14T08:11:29.965Z,213.11
2023-05-14T08:12:30.057Z,210.36
2023-05-14T08:13:30.139Z,210.22
2023-05-14T08:14:30.186Z,213.80
2023-05-14T08:15:30.195Z,213.28
2023-05-14T08:16:30.271Z,209.85
2023-05-14T08:17:30.347Z,212.03
2023-05-14T08:18:30.409Z,213.14
2023-05-14T08:19:30.435Z,211.33
2023-05-14T08:20:30.434Z,215.80
2023-05-14T08:21:30.486Z,212.66
2023-05-14T08:22:30.553Z,211.67
2023-05-14T08:23:30.567Z,213.16
2023-05-14T08:24:30.622Z,215.46
2023-05-14T08:25:30.691Z,217.46
2023-05-14T08:26:30.684Z,216.48
2023-05-14T08:27:30.741Z,211.73
2023-05-14T08:28:30.749Z,214.18
2023-05-14T08:29:30.806Z,216.47
2023-05-14T08:30:30.850Z,213.25
2023-05-14T08:31:30.879Z,214.76
2023-05-14T08:32:30.891Z,213.62
2023-05-14T08:33:30.876Z,214.36
2023-05-14T08:34:30.888Z,215.45
2023-05-14T08:35:31.073Z,214.73
2023-05-14T08:36:30.906Z,214.78
2023-05-14T08:37:30.961Z,216.14
2023-05-14T08:38:30.963Z,216.39
2023-05-14T08:39:30.977Z,216.99
2023-05-14T08:40:30.935Z,216.35
2023-05-14T08:41:30.939Z,215.48
2023-05-14T08:42:30.939Z,215.72
2023-05-14T08:43:31.006Z,214.27
2023-05-14T08:44:31.025Z,216.41
2023-05-14T08:45:31.029Z,215.53
2023-05-14T08:46:31.080Z,217.10
2023-05-14T08:47:31.174Z,216.60
2023-05-14T08:48:31.289Z,218.11
2023-05-14T08:49:31.187Z,214.29
2023-05-14T08:50:31.351Z,219.06
2023-05-14T08:51:31.376Z,219.77
2023-05-14T08:52:31.414Z,219.51
2023-05-14T08:53:31.488Z,219.24
2023-05-14T08:54:31.538Z,217.27
2023-05-14T08:55:31.609Z,216.32
2023-05-14T08:56:31.643Z,221.88
2023-05-14T08:57:31.701Z,220.59
2023-05-14T08:58:31.733Z,221.93
2023-05-14T08:59:31.784Z,219.44
2023-05-14T09:00:31.854Z,222.52
2023-05-14T09:01:31.905Z,219.12
2023-05-14T09:02:31.992Z,223.96
2023-05-14T09:03:32.012Z,218.36
2023-05-14T09:04:32.068Z,219.69
2023-05-14T09:05:32.118Z,218.35
2023-05-14T09:06:32.182Z,222.43
2023-05-14T09:07:32.250Z,223.43
2023-05-14T09:08:32.302Z,221.01
2023-05-14T09:09:32.356Z,222.94
2023-05-14T09:10:32.417Z,218.42
2023-05-14T09:11:32.471Z,221.43
2023-05-14T09:12:32.520Z,223.66
2023-05-14T09:13:32.582Z,225.44
2023-05-14T09:14:32.638Z,221.63
2023-05-14T09:15:32.704Z,223.97
2023-05-14T09:16:32.832Z,222.92
2023-05-14T09:17:32.850Z,221.66
2023-05-14T09:18:32.834Z,222.83
2023-05-14T09:19:32.939Z,222.89
2023-05-14T09:20:32.996Z,225.04
2023-05-14T09:21:33.663Z,224.08
2023-05-14T09:22:33.125Z,223.42
2023-05-14T09:23:33.161Z,222.94
2023-05-14T09:24:33.237Z,225.83
2023-05-14T09:25:33.271Z,224.96
2023-05-14T09:26:33.342Z,226.14
2023-05-14T09:27:33.411Z,226.88
2023-05-14T09:28:33.415Z,224.83
2023-05-14T09:29:33.513Z,225.36
2023-05-14T09:30:33.582Z,228.24
2023-05-14T09:31:33.742Z,228.70
2023-05-14T09:32:33.699Z,226.88
2023-05-14T09:33:33.743Z,229.45
2023-05-14T09:34:33.934Z,226.92
2023-05-14T09:35:33.857Z,227.86
2023-05-14T09:36:33.953Z,228.60
2023-05-14T09:37:33.973Z,228.84
2023-05-14T09:38:34.012Z,229.50
2023-05-14T09:39:34.086Z,229.37
2023-05-14T09:40:34.105Z,228.43
2023-05-14T09:41:34.203Z,230.17
2023-05-14T09:42:34.218Z,230.69
2023-05-14T09:43:34.285Z,227.91
2023-05-14T09:44:34.329Z,229.89
2023-05-14T09:45:34.396Z,231.10
2023-05-14T09:46:34.458Z,231.24
2023-05-14T09:47:34.570Z,230.34
2023-05-14T09:48:34.616Z,228.94
2023-05-14T09:49:34.635Z,229.26
2023-05-14T09:50:34.646Z,230.88
2023-05-14T09:51:34.743Z,229.57
2023-05-14T09:52:34.803Z,231.90
2023-05-14T09:53:34.862Z,228.52
2023-05-14T09:54:34.909Z,231.35
2023-05-14T09:55:34.973Z,231.14
2023-05-14T09:56:35.034Z,231.67
2023-05-14T09:57:35.099Z,231.22
2023-05-14T09:58:35.133Z,233.24
2023-05-14T09:59:35.154Z,230.30
2023-05-14T10:00:35.279Z,231.03
2023-05-14T10:01:35.364Z,234.45
2023-05-14T10:02:35.388Z,232.52
2023-05-14T10:03:35.400Z,229.64
2023-05-14T10:04:35.511Z,232.73
2023-05-14T10:05:35.565Z,231.10
2023-05-14T10:06:35.594Z,233.25
2023-05-14T10:07:35.613Z,232.26
2023-05-14T10:08:35.732Z,233.81
2023-05-14T10:09:35.731Z,233.07
2023-05-14T10:10:35.806Z,233.87
2023-05-14T10:11:35.837Z,234.70
2023-05-14T10:12:35.912Z,232.52
2023-05-14T10:13:35.967Z,234.37
2023-05-14T10:14:36.036Z,231.93
2023-05-14T10:15:36.096Z,232.36
2023-05-14T10:16:36.186Z,234.86
2023-05-14T10:17:36.243Z,232.05
2023-05-14T10:18:36.276Z,234.04
2023-05-14T10:19:36.317Z,235.10
2023-05-14T10:20:36.420Z,234.86
2023-05-14T10:21:36.445Z,233.89
2023-05-14T10:22:36.505Z,233.33
2023-05-14T10:23:36.536Z,233.73
2023-05-14T10:24:36.611Z,231.72
2023-05-14T10:26:07.025Z,25.00
2023-05-14T10:27:07.021Z,25.00
2023-05-14T10:28:06.982Z,25.00
2023-05-14T10:29:07.000Z,25.00
2023-05-14T10:30:06.992Z,25.00
2023-05-14T10:31:07.039Z,25.81
2023-05-14T10:32:07.036Z,26.40
2023-05-14T10:33:07.007Z,28.14
2023-05-14T10:34:06.977Z,27.75
2023-05-14T10:35:06.986Z,27.24
2023-05-14T10:36:06.929Z,29.63
2023-05-14T10:37:06.951Z,28.47
2023-05-14T10:38:07.027Z,31.52
2023-05-14T10:39:06.954Z,28.11
2023-05-14T10:40:06.920Z,30.15
2023-05-14T10:41:06.943Z,30.69
2023-05-14T10:42:06.981Z,31.04
2023-05-14T10:43:06.893Z,25.83
2023-05-14T10:44:06.899Z,30.08
2023-05-14T10:45:06.892Z,27.68
2023-05-14T10:46:06.967Z,27.65
2023-05-14T10:47:06.913Z,29.86
2023-05-14T10:48:06.934Z,28.52
2023-05-14T10:49:06.883Z,32.37
2023-05-14T10:50:06.850Z,30.48
2023-05-14T10:51:06.913Z,25.00
2023-05-14T10:52:06.911Z,28.66
2023-05-14T10:53:06.855Z,28.31
2023-05-14T10:54:06.857Z,30.18
2023-05-14T10:55:06.815Z,30.37
2023-05-14T10:56:06.828Z,29.93
2023-05-14T10:57:06.766Z,28.46
2023-05-14T10:58:06.847Z,25.77
2023-05-14T10:59:06.789Z,32.62
2023-05-14T11:00:06.799Z,29.99
2023-05-14T11:01:06.752Z,26.23
2023-05-14T11:02:06.840Z,30.21
2023-05-14T11:03:06.837Z,29.48
2023-05-14T11:04:06.798Z,28.91
2023-05-14T11:05:06.822Z,29.29
2023-05-14T11:06:06.913Z,30.79
2023-05-14T11:07:06.911Z,31.91
2023-05-14T11:08:06.941Z,31.77
2023-05-14T11:09:07.014Z,28.83
2023-05-14T11:10:07.063Z,28.72
2023-05-14T11:11:07.202Z,33.27
2023-05-14T11:12:07.176Z,29.80
2023-05-14T11:13:07.255Z,26.61
2023-05-14T11:14:09.604Z,34.56
2023-05-14T11:15:07.325Z,30.31
2023-05-14T11:17:07.291Z,31.79
2023-05-14T11:18:07.316Z,32.00
2023-05-14T11:19:07.264Z,32.62
2023-05-14T11:20:07.313Z,33.50
2023-05-14T11:21:07.267Z,30.99
2023-05-14T11:22:07.210Z,29.33
2023-05-14T11:23:07.266Z,29.60
2023-05-14T11:24:07.222Z,31.77
2023-05-14T11:25:07.211Z,35.13
2023-05-14T11:26:07.313Z,32.27
2023-05-14T11:27:07.202Z,31.39
2023-05-14T11:28:07.210Z,33.08
2023-05-14T11:29:07.204Z,30.97
2023-05-14T11:30:07.211Z,32.06
2023-05-14T11:31:07.132Z,32.71
2023-05-14T11:32:07.271Z,30.70
2023-05-14T11:33:07.254Z,28.90
2023-05-14T11:34:07.198Z,32.68
2023-05-14T11:35:07.178Z,30.93
2023-05-14T11:36:07.158Z,30.76
2023-05-14T11:37:07.114Z,32.75
2023-05-14T11:38:09.222Z,31.52
2023-05-14T11:39:07.124Z,33.59
2023-05-14T11:40:07.140Z,34.51
2023-05-14T11:41:07.144Z,31.60
2023-05-14T11:42:07.075Z,33.95
2023-05-14T11:43:07.152Z,31.61
2023-05-14T11:44:09.035Z,33.00
2023-05-14T11:45:07.269Z,33.35
2023-05-14T11:46:07.354Z,31.67
2023-05-14T11:47:07.396Z,33.87
2023-05-14T11:48:07.483Z,32.95
2023-05-14T11:49:07.505Z,29.48
2023-05-14T11:50:09.263Z,31.65
2023-05-14T11:51:07.616Z,34.67
2023-05-14T11:52:07.682Z,33.79
2023-05-14T11:53:07.765Z,30.89
2023-05-14T11:54:07.774Z,33.60
2023-05-14T11:55:07.852Z,35.19
2023-05-14T11:56:09.599Z,33.73
2023-05-14T11:57:07.967Z,33.87
2023-05-14T11:58:08.029Z,33.74
2023-05-14T11:59:08.089Z,32.34
2023-05-14T12:00:08.187Z,31.58
2023-05-14T12:01:08.253Z,33.00
2023-05-14T12:02:08.282Z,34.32
2023-05-14T12:03:08.403Z,32.80
2023-05-14T12:04:08.486Z,31.57
2023-05-14T12:05:08.425Z,30.66
2023-05-14T12:06:08.546Z,33.90
2023-05-14T12:07:08.545Z,31.22
2023-05-14T12:08:08.642Z,32.42
2023-05-14T12:09:08.712Z,32.19
2023-05-14T12:10:08.778Z,36.17
2023-05-14T12:11:08.882Z,37.70
2023-05-14T12:12:08.888Z,36.25
2023-05-14T12:13:08.928Z,35.76
2023-05-14T12:14:09.000Z,35.63
2023-05-14T12:15:09.044Z,33.35
2023-05-14T12:16:09.159Z,31.94
2023-05-14T12:17:09.148Z,33.75
2023-05-14T12:18:22.955Z,36.96
2023-05-14T12:19:10.377Z,37.07
2023-05-14T12:20:09.207Z,36.94
2023-05-14T12:21:09.220Z,37.25
2023-05-14T12:22:09.192Z,35.56
2023-05-14T12:23:09.202Z,34.20
2023-05-14T12:24:09.171Z,32.36
2023-05-14T12:25:09.231Z,35.32
2023-05-14T12:26:09.188Z,33.77
2023-05-14T12:27:09.201Z,34.68
2023-05-14T12:28:09.308Z,38.57
2023-05-14T12:29:09.338Z,34.99
2023-05-14T12:30:20.124Z,33.48
2023-05-14T12:31:10.460Z,33.82
2023-05-14T12:32:09.354Z,34.32
2023-05-14T12:33:09.420Z,34.26
2023-05-14T12:34:09.341Z,34.08